sensor_id;sensor_type;location;lat;lon;timestamp;P1;durP1;ratioP1;P2;durP2;ratioP2
45322;SDS011;31382;50.200;8.674;2023-07-13T00:03:34;2.50;;;0.30;;
45322;SDS011;31382;50.200;8.674;2023-07-13T00:08:36;1.65;;;0.20;;
45322;SDS011;31382;50.200;8.674;2023-07-13T00:13:37;0.93;;;0.20;;
45322;SDS011;31382;50.200;8.674;2023-07-13T00:18:40;1.98;;;0.20;;
45322;SDS011;31382;50.200;8.674;2023-07-13T00:23:42;0.68;;;0.20;;
45322;SDS011;31382;50.200;8.674;2023-07-13T00:28:44;1.98;;;0.17;;
45322;SDS011;31382;50.200;8.674;2023-07-13T00:33:45;1.77;;;0.20;;
45322;SDS011;31382;50.200;8.674;2023-07-13T00:38:47;0.45;;;0.30;;
45322;SDS011;31382;50.200;8.674;2023-07-13T00:43:48;0.32;;;0.20;;
45322;SDS011;31382;50.200;8.674;2023-07-13T00:48:50;1.90;;;0.57;;
45322;SDS011;31382;50.200;8.674;2023-07-13T00:53:53;0.95;;;0.13;;
45322;SDS011;31382;50.200;8.674;2023-07-13T00:58:57;1.85;;;0.20;;
45322;SDS011;31382;50.200;8.674;2023-07-13T01:04:01;0.38;;;0.10;;
45322;SDS011;31382;50.200;8.674;2023-07-13T01:09:04;1.63;;;0.25;;
45322;SDS011;31382;50.200;8.674;2023-07-13T01:14:05;3.40;;;0.30;;
45322;SDS011;31382;50.200;8.674;2023-07-13T01:19:11;0.68;;;0.17;;
45322;SDS011;31382;50.200;8.674;2023-07-13T01:24:38;4.40;;;0.25;;
45322;SDS011;31382;50.200;8.674;2023-07-13T01:29:43;2.13;;;0.20;;
45322;SDS011;31382;50.200;8.674;2023-07-13T01:34:47;4.80;;;0.20;;
45322;SDS011;31382;50.200;8.674;2023-07-13T01:39:49;0.95;;;0.20;;
45322;SDS011;31382;50.200;8.674;2023-07-13T01:44:51;2.05;;;0.30;;
45322;SDS011;31382;50.200;8.674;2023-07-13T01:49:52;2.83;;;0.20;;
45322;SDS011;31382;50.200;8.674;2023-07-13T01:54:53;0.82;;;0.20;;
45322;SDS011;31382;50.200;8.674;2023-07-13T01:59:55;9.02;;;0.32;;
45322;SDS011;31382;50.200;8.674;2023-07-13T02:04:56;2.30;;;0.20;;
45322;SDS011;31382;50.200;8.674;2023-07-13T02:09:58;6.10;;;0.30;;
45322;SDS011;31382;50.200;8.674;2023-07-13T02:14:59;1.70;;;0.20;;
45322;SDS011;31382;50.200;8.674;2023-07-13T02:20:01;0.82;;;0.20;;
45322;SDS011;31382;50.200;8.674;2023-07-13T02:25:04;1.63;;;0.13;;
45322;SDS011;31382;50.200;8.674;2023-07-13T02:30:07;3.85;;;0.20;;
45322;SDS011;31382;50.200;8.674;2023-07-13T02:35:09;2.20;;;0.20;;
45322;SDS011;31382;50.200;8.674;2023-07-13T02:40:11;0.30;;;0.10;;
45322;SDS011;31382;50.200;8.674;2023-07-13T02:45:12;3.00;;;0.20;;
45322;SDS011;31382;50.200;8.674;2023-07-13T02:50:14;1.00;;;0.10;;
45322;SDS011;31382;50.200;8.674;2023-07-13T02:55:16;2.05;;;0.30;;
45322;SDS011;31382;50.200;8.674;2023-07-13T03:00:17;0.98;;;0.30;;
45322;SDS011;31382;50.200;8.674;2023-07-13T03:05:19;2.17;;;0.20;;
45322;SDS011;31382;50.200;8.674;2023-07-13T03:10:21;1.17;;;0.38;;
45322;SDS011;31382;50.200;8.674;2023-07-13T03:15:22;0.80;;;0.20;;
45322;SDS011;31382;50.200;8.674;2023-07-13T03:20:24;1.88;;;0.20;;
45322;SDS011;31382;50.200;8.674;2023-07-13T03:25:25;1.85;;;0.20;;
45322;SDS011;31382;50.200;8.674;2023-07-13T03:30:27;1.02;;;0.20;;
45322;SDS011;31382;50.200;8.674;2023-07-13T03:35:28;2.45;;;0.20;;
45322;SDS011;31382;50.200;8.674;2023-07-13T03:40:30;0.98;;;0.20;;
45322;SDS011;31382;50.200;8.674;2023-07-13T03:45:31;2.22;;;0.35;;
45322;SDS011;31382;50.200;8.674;2023-07-13T03:50:33;3.45;;;0.20;;
45322;SDS011;31382;50.200;8.674;2023-07-13T03:55:34;3.00;;;0.40;;
45322;SDS011;31382;50.200;8.674;2023-07-13T04:00:35;1.38;;;0.17;;
45322;SDS011;31382;50.200;8.674;2023-07-13T04:05:37;2.63;;;0.30;;
45322;SDS011;31382;50.200;8.674;2023-07-13T04:10:42;1.58;;;0.40;;
45322;SDS011;31382;50.200;8.674;2023-07-13T04:15:44;0.82;;;0.20;;
45322;SDS011;31382;50.200;8.674;2023-07-13T04:20:48;5.63;;;0.65;;
45322;SDS011;31382;50.200;8.674;2023-07-13T04:25:52;1.13;;;0.20;;
45322;SDS011;31382;50.200;8.674;2023-07-13T04:30:54;3.22;;;0.20;;
45322;SDS011;31382;50.200;8.674;2023-07-13T04:35:56;1.05;;;0.28;;
45322;SDS011;31382;50.200;8.674;2023-07-13T04:40:59;1.05;;;0.28;;
45322;SDS011;31382;50.200;8.674;2023-07-13T04:46:07;3.15;;;0.30;;
45322;SDS011;31382;50.200;8.674;2023-07-13T04:51:11;1.88;;;0.20;;
45322;SDS011;31382;50.200;8.674;2023-07-13T04:56:13;1.85;;;0.20;;
45322;SDS011;31382;50.200;8.674;2023-07-13T05:01:14;0.55;;;0.20;;
45322;SDS011;31382;50.200;8.674;2023-07-13T05:06:16;2.10;;;0.20;;
45322;SDS011;31382;50.200;8.674;2023-07-13T05:11:18;1.70;;;0.28;;
45322;SDS011;31382;50.200;8.674;2023-07-13T05:16:19;3.30;;;0.30;;
45322;SDS011;31382;50.200;8.674;2023-07-13T05:21:20;2.05;;;0.20;;
45322;SDS011;31382;50.200;8.674;2023-07-13T05:26:22;1.98;;;0.30;;
45322;SDS011;31382;50.200;8.674;2023-07-13T05:31:23;1.55;;;0.13;;
45322;SDS011;31382;50.200;8.674;2023-07-13T05:36:25;0.80;;;0.28;;
45322;SDS011;31382;50.200;8.674;2023-07-13T05:41:26;2.83;;;0.20;;
45322;SDS011;31382;50.200;8.674;2023-07-13T05:46:28;4.13;;;0.30;;
45322;SDS011;31382;50.200;8.674;2023-07-13T05:51:29;0.95;;;0.20;;
45322;SDS011;31382;50.200;8.674;2023-07-13T05:56:31;2.63;;;0.10;;
45322;SDS011;31382;50.200;8.674;2023-07-13T06:01:32;1.98;;;0.10;;
45322;SDS011;31382;50.200;8.674;2023-07-13T06:06:34;1.75;;;0.10;;
45322;SDS011;31382;50.200;8.674;2023-07-13T06:11:35;0.70;;;0.10;;
45322;SDS011;31382;50.200;8.674;2023-07-13T06:16:37;3.55;;;0.20;;
45322;SDS011;31382;50.200;8.674;2023-07-13T06:21:38;0.80;;;0.20;;
45322;SDS011;31382;50.200;8.674;2023-07-13T06:26:40;2.88;;;0.20;;
45322;SDS011;31382;50.200;8.674;2023-07-13T06:31:41;1.90;;;0.20;;
45322;SDS011;31382;50.200;8.674;2023-07-13T06:36:44;6.57;;;0.40;;
45322;SDS011;31382;50.200;8.674;2023-07-13T06:41:46;1.90;;;0.30;;
45322;SDS011;31382;50.200;8.674;2023-07-13T06:46:48;1.15;;;0.20;;
45322;SDS011;31382;50.200;8.674;2023-07-13T06:51:53;1.58;;;0.10;;
45322;SDS011;31382;50.200;8.674;2023-07-13T06:56:55;2.08;;;0.20;;
45322;SDS011;31382;50.200;8.674;2023-07-13T07:01:57;1.75;;;0.10;;
45322;SDS011;31382;50.200;8.674;2023-07-13T07:06:59;1.00;;;0.10;;
45322;SDS011;31382;50.200;8.674;2023-07-13T07:12:00;1.90;;;0.10;;
45322;SDS011;31382;50.200;8.674;2023-07-13T07:17:04;0.45;;;0.20;;
45322;SDS011;31382;50.200;8.674;2023-07-13T07:22:06;1.67;;;0.10;;
45322;SDS011;31382;50.200;8.674;2023-07-13T07:27:07;0.75;;;0.17;;
45322;SDS011;31382;50.200;8.674;2023-07-13T07:32:11;1.27;;;0.13;;
45322;SDS011;31382;50.200;8.674;2023-07-13T07:37:33;1.95;;;0.30;;
45322;SDS011;31382;50.200;8.674;2023-07-13T07:42:37;1.10;;;0.10;;
45322;SDS011;31382;50.200;8.674;2023-07-13T07:47:39;0.32;;;0.08;;
45322;SDS011;31382;50.200;8.674;2023-07-13T07:52:40;0.95;;;0.00;;
45322;SDS011;31382;50.200;8.674;2023-07-13T07:57:42;0.50;;;0.10;;
45322;SDS011;31382;50.200;8.674;2023-07-13T08:02:46;1.35;;;0.10;;
45322;SDS011;31382;50.200;8.674;2023-07-13T08:07:52;0.63;;;0.10;;
45322;SDS011;31382;50.200;8.674;2023-07-13T08:12:53;0.10;;;0.03;;
45322;SDS011;31382;50.200;8.674;2023-07-13T08:17:58;0.32;;;0.10;;
45322;SDS011;31382;50.200;8.674;2023-07-13T08:22:59;1.02;;;0.15;;
45322;SDS011;31382;50.200;8.674;2023-07-13T08:28:02;2.58;;;0.10;;
45322;SDS011;31382;50.200;8.674;2023-07-13T08:33:04;0.57;;;0.00;;
45322;SDS011;31382;50.200;8.674;2023-07-13T08:38:06;0.63;;;0.10;;
45322;SDS011;31382;50.200;8.674;2023-07-13T08:43:13;0.15;;;0.10;;
45322;SDS011;31382;50.200;8.674;2023-07-13T08:48:19;1.08;;;0.10;;
45322;SDS011;31382;50.200;8.674;2023-07-13T08:53:26;1.00;;;0.20;;
45322;SDS011;31382;50.200;8.674;2023-07-13T08:58:35;1.27;;;0.05;;
45322;SDS011;31382;50.200;8.674;2023-07-13T09:03:40;1.17;;;0.10;;
45322;SDS011;31382;50.200;8.674;2023-07-13T09:08:59;2.60;;;0.20;;
45322;SDS011;31382;50.200;8.674;2023-07-13T09:19:21;0.22;;;0.10;;
45322;SDS011;31382;50.200;8.674;2023-07-13T09:29:41;0.57;;;0.10;;
45322;SDS011;31382;50.200;8.674;2023-07-13T09:35:11;1.20;;;0.30;;
45322;SDS011;31382;50.200;8.674;2023-07-13T09:40:20;1.77;;;0.10;;
45322;SDS011;31382;50.200;8.674;2023-07-13T09:45:32;0.45;;;0.10;;
45322;SDS011;31382;50.200;8.674;2023-07-13T09:50:35;0.47;;;0.00;;
45322;SDS011;31382;50.200;8.674;2023-07-13T09:55:38;0.80;;;0.10;;
45322;SDS011;31382;50.200;8.674;2023-07-13T10:00:41;0.70;;;0.10;;
45322;SDS011;31382;50.200;8.674;2023-07-13T10:05:45;0.80;;;0.10;;
45322;SDS011;31382;50.200;8.674;2023-07-13T10:10:57;0.10;;;0.10;;
45322;SDS011;31382;50.200;8.674;2023-07-13T10:16:00;1.02;;;0.20;;
45322;SDS011;31382;50.200;8.674;2023-07-13T10:21:10;0.32;;;0.10;;
45322;SDS011;31382;50.200;8.674;2023-07-13T10:26:27;0.20;;;0.10;;
45322;SDS011;31382;50.200;8.674;2023-07-13T10:31:40;1.55;;;0.10;;
45322;SDS011;31382;50.200;8.674;2023-07-13T10:36:44;0.30;;;0.10;;
45322;SDS011;31382;50.200;8.674;2023-07-13T10:41:53;0.20;;;0.10;;
45322;SDS011;31382;50.200;8.674;2023-07-13T10:47:00;2.42;;;0.10;;
45322;SDS011;31382;50.200;8.674;2023-07-13T10:52:03;0.77;;;0.10;;
45322;SDS011;31382;50.200;8.674;2023-07-13T10:57:18;0.30;;;0.10;;
45322;SDS011;31382;50.200;8.674;2023-07-13T11:07:28;2.20;;;0.10;;
45322;SDS011;31382;50.200;8.674;2023-07-13T11:12:49;0.40;;;0.10;;
45322;SDS011;31382;50.200;8.674;2023-07-13T11:17:55;1.90;;;0.20;;
45322;SDS011;31382;50.200;8.674;2023-07-13T11:28:18;1.27;;;0.10;;
45322;SDS011;31382;50.200;8.674;2023-07-13T11:33:27;1.40;;;0.20;;
45322;SDS011;31382;50.200;8.674;2023-07-13T11:38:32;0.40;;;0.10;;
45322;SDS011;31382;50.200;8.674;2023-07-13T11:43:40;0.52;;;0.20;;
45322;SDS011;31382;50.200;8.674;2023-07-13T11:48:41;0.15;;;0.10;;
45322;SDS011;31382;50.200;8.674;2023-07-13T11:53:46;1.27;;;0.17;;
45322;SDS011;31382;50.200;8.674;2023-07-13T11:58:53;0.88;;;0.20;;
45322;SDS011;31382;50.200;8.674;2023-07-13T12:03:57;0.15;;;0.10;;
45322;SDS011;31382;50.200;8.674;2023-07-13T12:09:11;2.67;;;0.20;;
45322;SDS011;31382;50.200;8.674;2023-07-13T12:14:17;0.93;;;0.20;;
45322;SDS011;31382;50.200;8.674;2023-07-13T12:19:21;1.05;;;0.20;;
45322;SDS011;31382;50.200;8.674;2023-07-13T12:24:25;0.40;;;0.20;;
45322;SDS011;31382;50.200;8.674;2023-07-13T12:29:27;0.80;;;0.25;;
45322;SDS011;31382;50.200;8.674;2023-07-13T12:34:29;1.15;;;0.20;;
45322;SDS011;31382;50.200;8.674;2023-07-13T12:39:37;0.38;;;0.13;;
45322;SDS011;31382;50.200;8.674;2023-07-13T12:44:45;0.80;;;0.20;;
45322;SDS011;31382;50.200;8.674;2023-07-13T12:49:53;1.40;;;0.40;;
45322;SDS011;31382;50.200;8.674;2023-07-13T12:55:02;1.65;;;0.30;;
45322;SDS011;31382;50.200;8.674;2023-07-13T13:00:19;2.67;;;0.30;;
45322;SDS011;31382;50.200;8.674;2023-07-13T13:05:22;3.65;;;0.38;;
45322;SDS011;31382;50.200;8.674;2023-07-13T13:10:26;1.50;;;0.20;;
45322;SDS011;31382;50.200;8.674;2023-07-13T13:15:28;0.70;;;0.10;;
45322;SDS011;31382;50.200;8.674;2023-07-13T13:20:29;1.77;;;0.30;;
45322;SDS011;31382;50.200;8.674;2023-07-13T13:25:30;0.50;;;0.10;;
45322;SDS011;31382;50.200;8.674;2023-07-13T13:30:32;1.55;;;0.32;;
45322;SDS011;31382;50.200;8.674;2023-07-13T13:35:33;3.45;;;0.30;;
45322;SDS011;31382;50.200;8.674;2023-07-13T13:40:35;0.30;;;0.10;;
45322;SDS011;31382;50.200;8.674;2023-07-13T13:45:36;1.13;;;0.15;;
45322;SDS011;31382;50.200;8.674;2023-07-13T13:50:38;0.32;;;0.10;;
45322;SDS011;31382;50.200;8.674;2023-07-13T13:55:40;0.82;;;0.20;;
45322;SDS011;31382;50.200;8.674;2023-07-13T14:00:42;0.35;;;0.20;;
45322;SDS011;31382;50.200;8.674;2023-07-13T14:05:47;0.90;;;0.32;;
45322;SDS011;31382;50.200;8.674;2023-07-13T14:10:50;0.77;;;0.30;;
45322;SDS011;31382;50.200;8.674;2023-07-13T14:15:55;4.03;;;0.20;;
45322;SDS011;31382;50.200;8.674;2023-07-13T14:20:56;1.30;;;0.20;;
45322;SDS011;31382;50.200;8.674;2023-07-13T14:25:58;3.45;;;0.30;;
45322;SDS011;31382;50.200;8.674;2023-07-13T14:30:59;0.43;;;0.20;;
45322;SDS011;31382;50.200;8.674;2023-07-13T14:36:02;0.50;;;0.15;;
45322;SDS011;31382;50.200;8.674;2023-07-13T14:41:04;0.50;;;0.20;;
45322;SDS011;31382;50.200;8.674;2023-07-13T14:46:07;1.67;;;0.10;;
45322;SDS011;31382;50.200;8.674;2023-07-13T14:51:19;2.55;;;0.20;;
45322;SDS011;31382;50.200;8.674;2023-07-13T14:56:21;1.85;;;0.20;;
45322;SDS011;31382;50.200;8.674;2023-07-13T15:01:22;3.47;;;0.22;;
45322;SDS011;31382;50.200;8.674;2023-07-13T15:06:24;0.55;;;0.10;;
45322;SDS011;31382;50.200;8.674;2023-07-13T15:11:26;0.68;;;0.20;;
45322;SDS011;31382;50.200;8.674;2023-07-13T15:16:27;0.93;;;0.45;;
45322;SDS011;31382;50.200;8.674;2023-07-13T15:21:29;1.02;;;0.20;;
45322;SDS011;31382;50.200;8.674;2023-07-13T15:26:35;1.98;;;0.13;;
45322;SDS011;31382;50.200;8.674;2023-07-13T15:31:37;1.67;;;0.10;;
45322;SDS011;31382;50.200;8.674;2023-07-13T15:36:40;1.65;;;0.15;;
45322;SDS011;31382;50.200;8.674;2023-07-13T15:41:42;1.00;;;0.20;;
45322;SDS011;31382;50.200;8.674;2023-07-13T15:46:48;4.35;;;0.20;;
45322;SDS011;31382;50.200;8.674;2023-07-13T15:51:49;0.47;;;0.10;;
45322;SDS011;31382;50.200;8.674;2023-07-13T15:56:52;2.40;;;0.22;;
45322;SDS011;31382;50.200;8.674;2023-07-13T16:01:55;0.65;;;0.10;;
45322;SDS011;31382;50.200;8.674;2023-07-13T16:06:57;4.85;;;0.10;;
45322;SDS011;31382;50.200;8.674;2023-07-13T16:11:58;2.78;;;0.20;;
45322;SDS011;31382;50.200;8.674;2023-07-13T16:17:00;3.42;;;0.32;;
45322;SDS011;31382;50.200;8.674;2023-07-13T16:22:02;2.17;;;0.20;;
45322;SDS011;31382;50.200;8.674;2023-07-13T16:27:06;0.73;;;0.10;;
45322;SDS011;31382;50.200;8.674;2023-07-13T16:32:13;0.40;;;0.20;;
45322;SDS011;31382;50.200;8.674;2023-07-13T16:37:16;0.57;;;0.10;;
45322;SDS011;31382;50.200;8.674;2023-07-13T16:42:20;1.43;;;0.30;;
45322;SDS011;31382;50.200;8.674;2023-07-13T16:47:22;2.70;;;0.20;;
45322;SDS011;31382;50.200;8.674;2023-07-13T16:52:27;0.77;;;0.20;;
45322;SDS011;31382;50.200;8.674;2023-07-13T16:57:30;0.40;;;0.10;;
45322;SDS011;31382;50.200;8.674;2023-07-13T17:02:36;0.30;;;0.15;;
45322;SDS011;31382;50.200;8.674;2023-07-13T17:07:40;1.55;;;0.10;;
45322;SDS011;31382;50.200;8.674;2023-07-13T17:12:44;1.17;;;0.10;;
45322;SDS011;31382;50.200;8.674;2023-07-13T17:17:46;1.35;;;0.20;;
45322;SDS011;31382;50.200;8.674;2023-07-13T17:22:50;0.65;;;0.20;;
45322;SDS011;31382;50.200;8.674;2023-07-13T17:27:52;1.23;;;0.20;;
45322;SDS011;31382;50.200;8.674;2023-07-13T17:32:53;0.85;;;0.10;;
45322;SDS011;31382;50.200;8.674;2023-07-13T17:37:58;0.50;;;0.20;;
45322;SDS011;31382;50.200;8.674;2023-07-13T17:43:01;1.52;;;0.28;;
45322;SDS011;31382;50.200;8.674;2023-07-13T17:48:02;2.10;;;0.20;;
45322;SDS011;31382;50.200;8.674;2023-07-13T17:58:08;4.45;;;0.30;;
45322;SDS011;31382;50.200;8.674;2023-07-13T18:03:11;0.77;;;0.25;;
45322;SDS011;31382;50.200;8.674;2023-07-13T18:08:17;2.47;;;0.20;;
45322;SDS011;31382;50.200;8.674;2023-07-13T18:13:24;2.92;;;0.30;;
45322;SDS011;31382;50.200;8.674;2023-07-13T18:18:30;3.50;;;0.20;;
45322;SDS011;31382;50.200;8.674;2023-07-13T18:23:35;1.40;;;0.22;;
45322;SDS011;31382;50.200;8.674;2023-07-13T18:28:36;1.08;;;0.17;;
45322;SDS011;31382;50.200;8.674;2023-07-13T18:33:38;0.93;;;0.30;;
45322;SDS011;31382;50.200;8.674;2023-07-13T18:38:44;1.67;;;0.13;;
45322;SDS011;31382;50.200;8.674;2023-07-13T18:43:46;1.58;;;0.50;;
45322;SDS011;31382;50.200;8.674;2023-07-13T18:48:49;3.33;;;0.30;;
45322;SDS011;31382;50.200;8.674;2023-07-13T18:53:52;1.85;;;0.30;;
45322;SDS011;31382;50.200;8.674;2023-07-13T18:58:54;1.15;;;0.30;;
45322;SDS011;31382;50.200;8.674;2023-07-13T19:03:56;1.45;;;0.30;;
45322;SDS011;31382;50.200;8.674;2023-07-13T19:08:57;1.10;;;0.20;;
45322;SDS011;31382;50.200;8.674;2023-07-13T19:13:59;1.15;;;0.30;;
45322;SDS011;31382;50.200;8.674;2023-07-13T19:19:00;4.00;;;0.45;;
45322;SDS011;31382;50.200;8.674;2023-07-13T19:24:03;2.47;;;0.30;;
45322;SDS011;31382;50.200;8.674;2023-07-13T19:29:05;2.55;;;0.57;;
45322;SDS011;31382;50.200;8.674;2023-07-13T19:34:14;3.92;;;0.40;;
45322;SDS011;31382;50.200;8.674;2023-07-13T19:39:39;1.55;;;0.30;;
45322;SDS011;31382;50.200;8.674;2023-07-13T19:44:41;3.78;;;0.50;;
45322;SDS011;31382;50.200;8.674;2023-07-13T19:49:43;4.55;;;0.40;;
45322;SDS011;31382;50.200;8.674;2023-07-13T19:54:44;3.08;;;0.32;;
45322;SDS011;31382;50.200;8.674;2023-07-13T19:59:51;2.50;;;0.70;;
45322;SDS011;31382;50.200;8.674;2023-07-13T20:04:55;8.77;;;1.17;;
45322;SDS011;31382;50.200;8.674;2023-07-13T20:09:56;9.00;;;0.43;;
45322;SDS011;31382;50.200;8.674;2023-07-13T20:14:58;5.95;;;0.60;;
45322;SDS011;31382;50.200;8.674;2023-07-13T20:20:00;5.80;;;0.63;;
45322;SDS011;31382;50.200;8.674;2023-07-13T20:25:13;10.48;;;0.77;;
45322;SDS011;31382;50.200;8.674;2023-07-13T20:30:23;4.82;;;0.50;;
45322;SDS011;31382;50.200;8.674;2023-07-13T20:35:26;7.00;;;0.70;;
45322;SDS011;31382;50.200;8.674;2023-07-13T20:40:31;8.25;;;1.63;;
45322;SDS011;31382;50.200;8.674;2023-07-13T20:45:34;12.52;;;5.57;;
45322;SDS011;31382;50.200;8.674;2023-07-13T20:50:37;23.55;;;9.27;;
45322;SDS011;31382;50.200;8.674;2023-07-13T20:55:39;15.43;;;6.03;;
45322;SDS011;31382;50.200;8.674;2023-07-13T21:00:41;7.30;;;3.78;;
45322;SDS011;31382;50.200;8.674;2023-07-13T21:05:43;12.38;;;2.63;;
45322;SDS011;31382;50.200;8.674;2023-07-13T21:10:44;4.78;;;1.42;;
45322;SDS011;31382;50.200;8.674;2023-07-13T21:15:47;2.90;;;0.90;;
45322;SDS011;31382;50.200;8.674;2023-07-13T21:20:49;3.92;;;0.85;;
45322;SDS011;31382;50.200;8.674;2023-07-13T21:25:56;1.23;;;0.50;;
45322;SDS011;31382;50.200;8.674;2023-07-13T21:31:00;2.65;;;0.60;;
45322;SDS011;31382;50.200;8.674;2023-07-13T21:36:04;2.25;;;0.40;;
45322;SDS011;31382;50.200;8.674;2023-07-13T21:41:12;3.15;;;0.40;;
45322;SDS011;31382;50.200;8.674;2023-07-13T21:46:23;2.22;;;0.40;;
45322;SDS011;31382;50.200;8.674;2023-07-13T21:51:30;1.80;;;0.30;;
45322;SDS011;31382;50.200;8.674;2023-07-13T21:56:32;3.08;;;0.40;;
45322;SDS011;31382;50.200;8.674;2023-07-13T22:01:34;3.53;;;0.65;;
45322;SDS011;31382;50.200;8.674;2023-07-13T22:06:35;1.52;;;0.88;;
45322;SDS011;31382;50.200;8.674;2023-07-13T22:11:37;1.73;;;0.68;;
45322;SDS011;31382;50.200;8.674;2023-07-13T22:16:38;1.33;;;0.50;;
45322;SDS011;31382;50.200;8.674;2023-07-13T22:21:40;2.05;;;0.60;;
45322;SDS011;31382;50.200;8.674;2023-07-13T22:26:42;1.17;;;0.60;;
45322;SDS011;31382;50.200;8.674;2023-07-13T22:31:45;2.80;;;0.40;;
45322;SDS011;31382;50.200;8.674;2023-07-13T22:36:47;6.75;;;0.88;;
45322;SDS011;31382;50.200;8.674;2023-07-13T22:41:49;3.15;;;0.80;;
45322;SDS011;31382;50.200;8.674;2023-07-13T22:46:50;3.47;;;0.90;;
45322;SDS011;31382;50.200;8.674;2023-07-13T22:57:00;5.15;;;1.02;;
45322;SDS011;31382;50.200;8.674;2023-07-13T23:02:01;2.38;;;0.40;;
45322;SDS011;31382;50.200;8.674;2023-07-13T23:07:04;1.55;;;0.40;;
45322;SDS011;31382;50.200;8.674;2023-07-13T23:12:07;1.88;;;0.40;;
45322;SDS011;31382;50.200;8.674;2023-07-13T23:17:11;1.40;;;0.35;;
45322;SDS011;31382;50.200;8.674;2023-07-13T23:22:22;3.00;;;0.35;;
45322;SDS011;31382;50.200;8.674;2023-07-13T23:27:27;5.30;;;0.90;;
45322;SDS011;31382;50.200;8.674;2023-07-13T23:32:30;0.60;;;0.40;;
45322;SDS011;31382;50.200;8.674;2023-07-13T23:37:31;1.85;;;0.32;;
45322;SDS011;31382;50.200;8.674;2023-07-13T23:42:33;2.88;;;0.40;;
45322;SDS011;31382;50.200;8.674;2023-07-13T23:47:34;1.80;;;0.52;;
45322;SDS011;31382;50.200;8.674;2023-07-13T23:52:36;3.72;;;0.40;;
45322;SDS011;31382;50.200;8.674;2023-07-13T23:57:37;2.25;;;0.60;;
